Triumph — WDC9555 — position and weather

sailwx.info

Track history (hours):
 
Tides and Currents Weather Stations Pressure Air Temp Water Temp Dewpoint Dewpoint Depression Visibility Wind Speed Wind Dir Waves Ship Positions

Triumph

Owner: WESTERN TOWBOAT CO, SEATTLE, WA. More information available from US FCC via Universal Licensing System and Coast Guard Vessel Documentation Center.

Last reported at 2014-Oct-30 23:25 UTC. Time now 2014-Nov-01 12:38 UTC.
Position N 47°39' W 122°22'.

Length 24 m; draft 5 m.

Type: Tow > 200 m length. MMSI: 367103880.

Date/timePositionNaut miles runAvg speedWind from/ knotsBaromVisibWave heightAir tempDewpointWater temp
2014-Oct-30 23:25N 47°39' W 122°22'0 0.0
2014-Oct-30 23:24N 47°39' W 122°22'1 1.2
2014-Oct-30 22:34N 47°40' W 122°23'0 3.8
2014-Oct-30 22:29N 47°40' W 122°24'0 0.1
2014-Oct-30 21:34N 47°40' W 122°24'0 0.0
2014-Oct-30 21:33N 47°40' W 122°24'1 1.4
2014-Oct-30 20:34N 47°39' W 122°22'0 0.0
2014-Oct-30 20:33N 47°39' W 122°22'  
2014-Oct-24 01:11N 47°39' W 122°22'0 2.7
2014-Oct-24 01:07N 47°39' W 122°22'1 1.4
2014-Oct-24 00:33N 47°39' W 122°21'0 0.3
2014-Oct-24 00:32N 47°39' W 122°21'2 1.6
2014-Oct-23 23:33N 47°40' W 122°23'0 3.6
2014-Oct-23 23:32N 47°40' W 122°23'2 2.2
2014-Oct-23 22:34N 47°41' W 122°25'0 3.4
2014-Oct-23 22:32N 47°41' W 122°26'6 6.1
2014-Oct-23 21:34N 47°36' W 122°22'0 1.2
2014-Oct-23 21:31N 47°35' W 122°22'0 0.0
2014-Oct-23 20:34N 47°35' W 122°21'0 1.1
2014-Oct-23 20:31N 47°35' W 122°21'0 0.2
2014-Oct-23 19:33N 47°35' W 122°21'0 0.0
2014-Oct-23 19:31N 47°35' W 122°21'0 0.0
2014-Oct-23 18:33N 47°35' W 122°21'0 0.0
2014-Oct-23 18:31N 47°35' W 122°21'1 1.3
2014-Oct-23 17:33N 47°34' W 122°21'0 0.0
2014-Oct-23 17:31N 47°34' W 122°21'  
Track history (hours):
 
Tides and Currents Weather Stations Pressure Air Temp Water Temp Dewpoint Dewpoint Depression Visibility Wind Speed Wind Dir Waves Ship Positions

Triumph

Owner: WESTERN TOWBOAT CO, SEATTLE, WA. More information available from US FCC via Universal Licensing System and Coast Guard Vessel Documentation Center.

Last reported at 2014-Oct-30 23:25 UTC. Time now 2014-Nov-01 12:38 UTC.
Position N 47°39' W 122°22'.

Length 24 m; draft 5 m.

Type: Tow > 200 m length. MMSI: 367103880.

Date/timePositionNaut miles runAvg speedWind from/ knotsBaromVisibWave heightAir tempDewpointWater temp
2014-Oct-30 23:25N 47°39' W 122°22'0 0.0
2014-Oct-30 23:24N 47°39' W 122°22'1 1.2
2014-Oct-30 22:34N 47°40' W 122°23'0 3.8
2014-Oct-30 22:29N 47°40' W 122°24'0 0.1
2014-Oct-30 21:34N 47°40' W 122°24'0 0.0
2014-Oct-30 21:33N 47°40' W 122°24'1 1.4
2014-Oct-30 20:34N 47°39' W 122°22'0 0.0
2014-Oct-30 20:33N 47°39' W 122°22'  
2014-Oct-24 01:11N 47°39' W 122°22'0 2.7
2014-Oct-24 01:07N 47°39' W 122°22'1 1.4
2014-Oct-24 00:33N 47°39' W 122°21'0 0.3
2014-Oct-24 00:32N 47°39' W 122°21'2 1.6
2014-Oct-23 23:33N 47°40' W 122°23'0 3.6
2014-Oct-23 23:32N 47°40' W 122°23'2 2.2
2014-Oct-23 22:34N 47°41' W 122°25'0 3.4
2014-Oct-23 22:32N 47°41' W 122°26'6 6.1
2014-Oct-23 21:34N 47°36' W 122°22'0 1.2
2014-Oct-23 21:31N 47°35' W 122°22'0 0.0
2014-Oct-23 20:34N 47°35' W 122°21'0 1.1
2014-Oct-23 20:31N 47°35' W 122°21'0 0.2
2014-Oct-23 19:33N 47°35' W 122°21'0 0.0
2014-Oct-23 19:31N 47°35' W 122°21'0 0.0
2014-Oct-23 18:33N 47°35' W 122°21'0 0.0
2014-Oct-23 18:31N 47°35' W 122°21'1 1.3
2014-Oct-23 17:33N 47°34' W 122°21'0 0.0
2014-Oct-23 17:31N 47°34' W 122°21'  

Dump ship's entire track history